createdAt,value
2022-10-08T00:00:20.018Z,90.90
2022-10-08T00:05:22.025Z,95.40
2022-10-08T00:10:23.714Z,92.10
2022-10-08T00:15:26.205Z,93.70
2022-10-08T00:20:27.927Z,101.50
2022-10-08T00:25:29.601Z,114.90
2022-10-08T00:30:31.312Z,111.60
2022-10-08T00:35:40.956Z,97.00
2022-10-08T00:40:44.324Z,96.90
2022-10-08T00:45:48.001Z,103.00
2022-10-08T00:50:49.759Z,87.20
2022-10-08T00:55:51.602Z,89.00
2022-10-08T01:00:53.851Z,82.70
2022-10-08T01:06:09.166Z,86.80
2022-10-08T01:11:35.776Z,84.40
2022-10-08T01:16:54.236Z,99.00
2022-10-08T01:22:46.180Z,104.90
2022-10-08T01:28:01.195Z,89.30
2022-10-08T01:33:12.493Z,83.50
2022-10-08T01:38:18.390Z,80.40
2022-10-08T01:43:23.845Z,86.80
2022-10-08T01:48:34.002Z,95.90
2022-10-08T01:53:41.304Z,99.40
2022-10-08T01:58:57.040Z,93.50
2022-10-08T02:04:17.690Z,88.20
2022-10-08T02:09:19.750Z,91.70
2022-10-08T02:14:25.944Z,89.00
2022-10-08T02:19:30.771Z,94.40
2022-10-08T02:24:45.378Z,94.80
2022-10-08T02:30:01.493Z,105.40
2022-10-08T02:35:25.514Z,131.50
2022-10-08T02:40:30.542Z,98.50
2022-10-08T02:45:41.320Z,112.30
2022-10-08T02:50:45.854Z,101.00
2022-10-08T02:56:11.612Z,99.20
2022-10-08T03:01:51.439Z,92.50
2022-10-08T03:06:58.640Z,112.10
2022-10-08T03:12:00.878Z,83.10
2022-10-08T03:17:03.456Z,93.60
2022-10-08T03:22:07.434Z,81.70
2022-10-08T03:27:09.125Z,88.70
2022-10-08T03:32:10.784Z,89.90
2022-10-08T03:37:12.565Z,94.60
2022-10-08T03:42:14.293Z,76.20
2022-10-08T03:47:16.017Z,68.90
2022-10-08T03:52:18.029Z,77.60
2022-10-08T03:57:19.804Z,82.10
2022-10-08T04:02:21.631Z,82.50
2022-10-08T04:07:23.631Z,85.50
2022-10-08T04:12:25.311Z,82.30
2022-10-08T04:17:27.138Z,88.70
2022-10-08T04:22:28.888Z,93.00
2022-10-08T04:27:30.541Z,102.70
2022-10-08T04:32:32.457Z,140.30
2022-10-08T04:37:34.431Z,151.30
2022-10-08T04:42:36.240Z,158.90
2022-10-08T04:47:37.995Z,169.40
2022-10-08T04:52:39.802Z,169.30
2022-10-08T04:57:41.722Z,157.80
2022-10-08T05:02:43.535Z,152.70
2022-10-08T05:07:45.638Z,142.80
2022-10-08T05:12:53.407Z,164.50
2022-10-08T05:18:08.683Z,138.10
2022-10-08T05:23:10.746Z,143.40
2022-10-08T05:28:12.504Z,115.30
2022-10-08T05:33:14.209Z,121.70
2022-10-08T05:38:16.194Z,108.60
2022-10-08T05:43:17.845Z,112.60
2022-10-08T05:48:19.701Z,106.00
2022-10-08T05:53:21.665Z,88.80
2022-10-08T05:58:26.284Z,81.00
2022-10-08T06:03:30.935Z,80.00
2022-10-08T06:08:34.215Z,74.00
2022-10-08T06:13:36.089Z,62.50
2022-10-08T06:18:40.616Z,59.30
2022-10-08T06:23:47.898Z,62.90
2022-10-08T06:28:50.226Z,74.60
2022-10-08T06:33:56.607Z,68.60
2022-10-08T06:39:01.355Z,66.20
2022-10-08T06:44:06.720Z,63.30
2022-10-08T06:49:10.530Z,59.80
2022-10-08T06:54:12.314Z,57.30
2022-10-08T06:59:13.992Z,58.50
2022-10-08T07:04:15.682Z,51.10
2022-10-08T07:09:17.607Z,44.50
2022-10-08T07:14:19.374Z,45.90
2022-10-08T07:19:21.047Z,45.50
2022-10-08T07:24:22.778Z,43.40
2022-10-08T07:29:27.804Z,36.70
2022-10-08T07:34:49.566Z,43.90
2022-10-08T07:40:07.458Z,43.00
2022-10-08T07:45:09.786Z,35.20
2022-10-08T07:50:11.537Z,29.50
2022-10-08T07:55:13.295Z,27.40
2022-10-08T08:00:35.444Z,28.80
2022-10-08T08:05:47.768Z,25.30
2022-10-08T08:10:50.382Z,25.30
2022-10-08T08:16:00.209Z,25.30
2022-10-08T08:21:07.585Z,24.60
2022-10-08T08:26:23.086Z,28.10
2022-10-08T08:31:37.333Z,26.70
2022-10-08T08:36:42.092Z,27.60
2022-10-08T08:42:21.773Z,30.40
2022-10-08T08:47:34.602Z,25.00
2022-10-08T08:52:40.321Z,25.40
2022-10-08T08:57:55.171Z,24.60
2022-10-08T09:03:03.933Z,23.80
2022-10-08T09:08:26.885Z,26.40
2022-10-08T09:13:50.906Z,25.80
2022-10-08T09:18:53.095Z,22.00
2022-10-08T09:24:01.338Z,21.30
2022-10-08T09:29:05.253Z,20.70
2022-10-08T09:34:10.024Z,22.60
2022-10-08T09:39:19.485Z,25.90
2022-10-08T09:44:23.154Z,33.80
2022-10-08T09:49:38.388Z,27.20
2022-10-08T09:54:48.788Z,21.90
2022-10-08T09:59:54.100Z,20.50
2022-10-08T10:04:57.122Z,25.60
2022-10-08T10:10:02.081Z,18.00
2022-10-08T10:15:35.394Z,18.90
2022-10-08T10:20:59.588Z,21.90
2022-10-08T10:26:15.623Z,21.60
2022-10-08T10:31:31.762Z,21.40
2022-10-08T10:36:41.960Z,22.30
2022-10-08T10:41:55.329Z,23.70
2022-10-08T10:47:01.470Z,21.90
2022-10-08T10:52:41.478Z,26.50
2022-10-08T10:58:17.148Z,23.80
2022-10-08T11:03:29.819Z,23.80
2022-10-08T11:08:48.695Z,24.10
2022-10-08T11:14:04.313Z,21.40
2022-10-08T11:19:18.953Z,19.00
2022-10-08T11:24:49.101Z,20.20
2022-10-08T11:30:36.460Z,21.50
2022-10-08T11:36:03.102Z,22.70
2022-10-08T11:41:43.913Z,20.90
2022-10-08T11:46:45.853Z,20.10
2022-10-08T11:51:51.281Z,20.70
2022-10-08T11:57:13.962Z,22.10
2022-10-08T12:02:25.350Z,19.80
2022-10-08T12:07:33.241Z,21.40
2022-10-08T12:12:56.307Z,21.30
2022-10-08T12:18:01.259Z,26.00
2022-10-08T12:23:11.444Z,20.60
2022-10-08T12:28:19.333Z,24.80
2022-10-08T12:33:21.902Z,24.40
2022-10-08T12:38:47.377Z,27.20
2022-10-08T12:44:11.994Z,19.90
2022-10-08T12:49:57.020Z,27.60
2022-10-08T12:55:01.799Z,21.30
2022-10-08T13:00:20.936Z,23.70
2022-10-08T13:05:30.732Z,24.70
2022-10-08T13:10:32.469Z,22.80
2022-10-08T13:15:35.123Z,22.30
2022-10-08T13:20:37.217Z,23.10
2022-10-08T13:25:43.146Z,24.30
2022-10-08T13:30:46.724Z,24.60
2022-10-08T13:35:59.297Z,24.70
2022-10-08T13:41:06.253Z,27.10
2022-10-08T13:46:08.039Z,27.40
2022-10-08T13:51:10.855Z,21.50
2022-10-08T13:56:27.367Z,20.80
2022-10-08T14:01:29.044Z,35.70
2022-10-08T14:06:31.582Z,20.40
2022-10-08T14:11:35.021Z,21.90
2022-10-08T14:16:51.064Z,25.90
2022-10-08T14:21:55.661Z,22.30
2022-10-08T14:26:57.683Z,23.60
2022-10-08T14:32:00.076Z,24.50
2022-10-08T14:37:02.312Z,35.10
2022-10-08T14:42:04.198Z,23.40
2022-10-08T14:47:05.951Z,28.60
2022-10-08T14:52:14.855Z,22.30
2022-10-08T14:57:16.770Z,29.20
2022-10-08T15:02:18.501Z,28.50
2022-10-08T15:07:21.320Z,24.60
2022-10-08T15:12:23.140Z,26.00
2022-10-08T15:17:24.883Z,23.10
2022-10-08T15:22:36.114Z,28.30
2022-10-08T15:27:37.869Z,32.50
2022-10-08T15:32:40.318Z,28.30
2022-10-08T15:37:42.021Z,33.40
2022-10-08T15:42:43.756Z,48.40
2022-10-08T15:47:48.468Z,48.20
2022-10-08T15:52:50.506Z,48.40
2022-10-08T15:57:52.545Z,58.00
2022-10-08T16:02:55.485Z,40.30
2022-10-08T16:07:57.320Z,29.20
2022-10-08T16:13:02.401Z,40.90
2022-10-08T16:18:05.425Z,38.40
2022-10-08T16:23:08.371Z,61.50
2022-10-08T16:28:10.295Z,56.40
2022-10-08T16:33:32.413Z,38.30
2022-10-08T16:38:47.049Z,37.40
2022-10-08T16:43:50.679Z,37.90
2022-10-08T16:49:01.777Z,32.40
2022-10-08T16:54:06.303Z,44.00
2022-10-08T16:59:11.452Z,48.60
2022-10-08T17:04:15.139Z,48.00
2022-10-08T17:09:16.880Z,66.30
2022-10-08T17:14:18.957Z,57.80
2022-10-08T17:19:20.726Z,49.70
2022-10-08T17:24:22.586Z,43.90
2022-10-08T17:29:24.603Z,44.00
2022-10-08T17:34:26.394Z,45.60
2022-10-08T17:39:47.666Z,42.20
2022-10-08T17:44:49.710Z,44.40
2022-10-08T17:49:54.291Z,44.40
2022-10-08T17:54:55.966Z,49.00
2022-10-08T17:59:57.947Z,41.70
2022-10-08T18:04:59.698Z,40.70
2022-10-08T18:10:01.642Z,44.80
2022-10-08T18:15:18.401Z,42.70
2022-10-08T18:20:33.937Z,46.20
2022-10-08T18:25:35.948Z,44.70
2022-10-08T18:30:37.844Z,49.50
2022-10-08T18:35:39.663Z,52.20
2022-10-08T18:40:41.341Z,49.50
2022-10-08T18:45:43.157Z,50.90
2022-10-08T18:50:44.992Z,48.70
2022-10-08T18:55:50.102Z,55.10
2022-10-08T19:01:02.485Z,50.00
2022-10-08T19:06:07.270Z,51.20
2022-10-08T19:11:31.469Z,50.30
2022-10-08T19:16:40.551Z,49.90
2022-10-08T19:21:43.564Z,52.00
2022-10-08T19:26:46.945Z,46.20
2022-10-08T19:31:50.525Z,45.90
2022-10-08T19:36:52.549Z,50.10
2022-10-08T19:41:54.246Z,51.30
2022-10-08T19:46:56.134Z,55.70
2022-10-08T19:51:58.164Z,51.40
2022-10-08T19:56:59.870Z,49.90
2022-10-08T20:02:01.716Z,55.10
2022-10-08T20:07:04.332Z,53.80
2022-10-08T20:12:06.080Z,54.90
2022-10-08T20:17:08.026Z,51.80
2022-10-08T20:22:11.828Z,55.80
2022-10-08T20:27:13.804Z,51.40
2022-10-08T20:32:15.569Z,44.00
2022-10-08T20:37:17.251Z,45.60
2022-10-08T20:42:39.371Z,42.30
2022-10-08T20:47:47.738Z,44.50
2022-10-08T20:52:49.879Z,44.90
2022-10-08T20:57:52.015Z,41.30
2022-10-08T21:02:54.069Z,42.80
2022-10-08T21:07:55.681Z,36.10
2022-10-08T21:12:57.340Z,39.10
2022-10-08T21:17:59.107Z,29.20
2022-10-08T21:23:00.851Z,28.50
2022-10-08T21:28:02.667Z,34.70
2022-10-08T21:33:04.407Z,29.30
2022-10-08T21:38:06.153Z,25.40
2022-10-08T21:43:08.029Z,23.00
2022-10-08T21:48:09.721Z,19.90
2022-10-08T21:53:11.422Z,20.60
2022-10-08T21:58:13.189Z,16.00
2022-10-08T22:03:18.316Z,25.60
2022-10-08T22:08:21.036Z,21.50
2022-10-08T22:13:23.598Z,15.60
2022-10-08T22:18:28.222Z,14.00
2022-10-08T22:23:30.122Z,16.70
2022-10-08T22:28:32.154Z,14.70
2022-10-08T22:33:34.663Z,13.80
2022-10-08T22:38:38.360Z,21.10
2022-10-08T22:43:41.518Z,18.40
2022-10-08T22:48:43.554Z,19.80
2022-10-08T22:53:46.650Z,12.30
2022-10-08T22:58:49.640Z,17.80
2022-10-08T23:03:52.111Z,16.40
2022-10-08T23:08:59.262Z,11.40
2022-10-08T23:14:01.770Z,13.10
2022-10-08T23:19:06.762Z,14.30
2022-10-08T23:24:08.561Z,9.30
2022-10-08T23:29:13.906Z,15.10
2022-10-08T23:34:16.525Z,12.90
2022-10-08T23:39:18.451Z,14.40
2022-10-08T23:44:20.322Z,15.10
2022-10-08T23:49:22.010Z,14.00
2022-10-08T23:54:23.972Z,12.50
2022-10-08T23:59:25.736Z,12.60
